Time;durP1;ratioP1;P1;durP2;ratioP2;P2;SDS_P1;SDS_P2;PMS_P1;PMS_P2;Temp;Humidity;BMP_temperature;BMP_pressure;BME280_temperature;BME280_humidity;BME280_pressure;Samples;Min_cycle;Max_cycle;Signal;HPM_P1;HPM_P2
2023/05/30 00:03:22;;;;;;;;;;;;;;;13.63;59.97;98828.95;435532;1254;111189;-43
2023/05/30 00:23:37;;;;;;;;;;;;;;;13.51;60.63;98836.39;435532;1256;97892;-43
2023/05/30 00:33:43;;;;;;;;;;;;;;;13.58;60.54;98829.84;435366;1257;107597;-43
2023/05/30 00:43:49;;;;;;;;;;;;;;;13.58;60.79;98834.61;435265;1256;98011;-42
2023/05/30 00:53:55;;;;;;;;;;;;;;;13.75;61.39;98828.55;435283;1250;110511;-44
2023/05/30 01:04:01;;;;;;;;;;;;;;;13.85;61.54;98827.77;435394;1256;107757;-42
2023/05/30 01:14:07;;;;;;;;;;;;;;;13.81;61.75;98826.39;435448;1256;97563;-43
2023/05/30 01:24:15;;;;;;;;;;;;;;;13.77;61.82;98819.60;435266;1251;110741;-43
2023/05/30 01:34:21;;;;;;;;;;;;;;;13.72;62.00;98818.83;436298;1250;108803;-42
2023/05/30 01:44:26;;;;;;;;;;;;;;;13.65;62.27;98818.73;435192;1254;97549;-44
2023/05/30 01:54:33;;;;;;;;;;;;;;;13.62;62.49;98817.14;435409;1254;110530;-43
2023/05/30 02:04:39;;;;;;;;;;;;;;;13.55;62.71;98816.09;435271;1254;108718;-42
2023/05/30 02:14:47;;;;;;;;;;;;;;;13.43;63.05;98816.34;435253;1254;97977;-42
2023/05/30 02:24:55;;;;;;;;;;;;;;;13.34;63.23;98816.42;435374;1256;110677;-43
2023/05/30 02:35:01;;;;;;;;;;;;;;;13.28;63.48;98816.55;435250;1254;108837;-43
2023/05/30 02:45:07;;;;;;;;;;;;;;;13.28;63.66;98830.84;435408;1254;97878;-42
2023/05/30 03:15:22;;;;;;;;;;;;;;;13.64;64.04;98845.16;435370;1254;97880;-43
2023/05/30 03:25:28;;;;;;;;;;;;;;;13.56;63.88;98847.14;435309;1254;110590;-42
2023/05/30 03:35:34;;;;;;;;;;;;;;;13.46;63.88;98856.92;435269;1254;109447;-43
2023/05/30 03:45:40;;;;;;;;;;;;;;;13.53;63.88;98865.42;435398;1252;97899;-42
2023/05/30 03:55:47;;;;;;;;;;;;;;;13.66;63.61;98872.26;435043;1254;459501;-44
2023/05/30 04:05:53;;;;;;;;;;;;;;;14.25;63.30;98866.62;435216;1252;110740;-44
2023/05/30 04:15:59;;;;;;;;;;;;;;;15.95;62.43;98866.72;435346;1251;97899;-42
2023/05/30 04:26:06;;;;;;;;;;;;;;;17.94;60.61;98872.20;435313;1252;109590;-43
2023/05/30 04:36:18;;;;;;;;;;;;;;;19.45;58.65;98871.54;435411;1254;107439;-43
2023/05/30 04:46:27;;;;;;;;;;;;;;;20.43;56.77;98888.01;435320;1254;96651;-44
2023/05/30 04:56:34;;;;;;;;;;;;;;;20.90;55.17;98905.14;435388;1254;109930;-43
2023/05/30 05:06:40;;;;;;;;;;;;;;;21.10;54.12;98906.36;435433;1254;108408;-43
2023/05/30 05:16:45;;;;;;;;;;;;;;;21.48;52.95;98906.16;435388;1254;97906;-44
2023/05/30 05:26:51;;;;;;;;;;;;;;;20.18;52.66;98917.96;435346;1254;110510;-43
2023/05/30 05:36:55;;;;;;;;;;;;;;;19.03;52.76;98934.30;435353;1254;97919;-42
2023/05/30 05:47:01;;;;;;;;;;;;;;;18.51;53.35;98945.15;435451;1254;97474;-44
2023/05/30 05:57:08;;;;;;;;;;;;;;;18.48;53.84;98950.02;435390;1251;111326;-43
2023/05/30 06:07:14;;;;;;;;;;;;;;;18.65;53.85;98952.81;435433;1254;107574;-42
2023/05/30 06:17:20;;;;;;;;;;;;;;;18.31;53.79;98960.30;435415;1254;97491;-44
2023/05/30 06:27:26;;;;;;;;;;;;;;;18.12;54.25;98968.85;435323;1251;110459;-43
2023/05/30 06:37:32;;;;;;;;;;;;;;;19.19;54.43;98972.83;435383;1254;108245;-43
2023/05/30 06:47:37;;;;;;;;;;;;;;;20.40;53.51;98977.61;435339;1254;97871;-43
2023/05/30 06:57:43;;;;;;;;;;;;;;;21.27;52.10;98983.52;435378;1255;110817;-44
2023/05/30 07:07:48;;;;;;;;;;;;;;;21.06;50.50;98980.95;435375;1254;106684;-43
2023/05/30 07:17:55;;;;;;;;;;;;;;;21.49;50.71;98983.58;435444;1254;97784;-44
2023/05/30 07:28:02;;;;;;;;;;;;;;;21.73;49.57;98989.19;435384;1253;109006;-44
2023/05/30 07:38:07;;;;;;;;;;;;;;;21.80;49.44;98994.83;435355;1254;109542;-44
2023/05/30 07:48:13;;;;;;;;;;;;;;;22.29;49.41;99002.57;435140;1254;97887;-44
2023/05/30 07:58:19;;;;;;;;;;;;;;;23.01;48.67;98994.98;435342;1254;110385;-43
2023/05/30 08:08:25;;;;;;;;;;;;;;;22.99;47.35;98994.00;435317;1253;107700;-43
2023/05/30 08:18:31;;;;;;;;;;;;;;;22.97;46.82;98996.48;435267;1255;97867;-41
2023/05/30 08:28:37;;;;;;;;;;;;;;;22.68;46.21;98996.33;435340;1251;109670;-43
2023/05/30 08:38:43;;;;;;;;;;;;;;;22.11;46.41;98991.56;435312;1254;108518;-42
2023/05/30 08:48:49;;;;;;;;;;;;;;;22.54;45.56;99001.90;435396;1252;96713;-42
2023/05/30 08:58:57;;;;;;;;;;;;;;;21.77;45.87;99006.72;435482;1254;110034;-42
2023/05/30 09:09:03;;;;;;;;;;;;;;;21.45;46.17;99007.73;435416;1255;108741;-42
2023/05/30 09:19:09;;;;;;;;;;;;;;;21.27;46.31;99009.67;435242;1254;97386;-42
2023/05/30 09:29:15;;;;;;;;;;;;;;;21.18;46.21;99014.50;435361;1254;110848;-43
2023/05/30 09:39:20;;;;;;;;;;;;;;;21.09;45.76;99011.66;435241;1254;108575;-43
2023/05/30 09:49:26;;;;;;;;;;;;;;;20.96;45.19;99013.98;435313;1251;97890;-42
2023/05/30 10:09:38;;;;;;;;;;;;;;;21.30;43.51;99024.64;435273;1255;108422;-42
2023/05/30 10:19:43;;;;;;;;;;;;;;;21.92;43.69;99022.67;435255;1255;117387;-43
2023/05/30 10:29:57;;;;;;;;;;;;;;;22.53;42.05;99018.35;435241;1255;110912;-43
2023/05/30 10:40:06;;;;;;;;;;;;;;;22.02;42.02;99023.72;435443;1255;109030;-43
2023/05/30 11:00:19;;;;;;;;;;;;;;;21.73;42.58;99021.10;435273;1251;110874;-43
2023/05/30 11:10:28;;;;;;;;;;;;;;;22.37;41.99;99016.87;435195;1255;97348;-44
2023/05/30 11:20:48;;;;;;;;;;;;;;;22.44;40.61;99013.77;435372;1255;98002;-46
2023/05/30 11:30:53;;;;;;;;;;;;;;;22.67;40.16;99014.95;435187;1251;109809;-43
2023/05/30 11:40:59;;;;;;;;;;;;;;;22.33;39.67;99016.46;435192;1252;107264;-43
2023/05/30 11:51:06;;;;;;;;;;;;;;;22.60;39.85;99018.06;435334;1252;98501;-44
2023/05/30 12:01:12;;;;;;;;;;;;;;;22.74;39.57;99021.69;435324;1255;110775;-44
2023/05/30 12:11:19;;;;;;;;;;;;;;;22.08;39.07;99023.24;435185;1252;109623;-42
2023/05/30 12:21:24;;;;;;;;;;;;;;;21.55;39.06;99024.23;435254;1255;97205;-43
2023/05/30 12:31:30;;;;;;;;;;;;;;;21.89;38.65;99022.95;435423;1251;109599;-45
2023/05/30 12:41:40;;;;;;;;;;;;;;;22.14;38.20;99024.55;435454;1254;108028;-46
2023/05/30 12:51:47;;;;;;;;;;;;;;;22.34;38.26;99025.87;435327;1251;97911;-42
2023/05/30 13:11:57;;;;;;;;;;;;;;;22.62;37.76;99018.45;435344;1255;97476;-43
2023/05/30 13:22:02;;;;;;;;;;;;;;;22.04;37.83;99020.51;435235;1254;117361;-43
2023/05/30 13:32:07;;;;;;;;;;;;;;;21.69;38.24;99020.20;435251;1250;110901;-42
2023/05/30 13:42:13;;;;;;;;;;;;;;;21.93;37.93;99009.60;435408;1256;107979;-44
2023/05/30 13:52:19;;;;;;;;;;;;;;;22.24;37.83;99011.67;435534;1256;97467;-43
2023/05/30 14:02:25;;;;;;;;;;;;;;;22.02;37.76;99011.22;435388;1255;111593;-43
2023/05/30 14:12:32;;;;;;;;;;;;;;;21.66;38.27;99015.73;435461;1256;107139;-43
2023/05/30 14:22:38;;;;;;;;;;;;;;;22.11;37.53;99010.27;435452;1257;97884;-42
2023/05/30 14:32:44;;;;;;;;;;;;;;;22.39;36.71;99020.77;435412;1250;109875;-45
2023/05/30 14:42:50;;;;;;;;;;;;;;;22.63;36.67;99020.38;435380;1256;108311;-43
2023/05/30 14:52:56;;;;;;;;;;;;;;;22.58;35.67;99018.41;435450;1255;97558;-42
2023/05/30 15:03:02;;;;;;;;;;;;;;;22.48;35.62;99018.04;435280;1256;110770;-43
2023/05/30 15:13:08;;;;;;;;;;;;;;;22.51;35.64;99021.58;435371;1256;108384;-44
2023/05/30 15:23:14;;;;;;;;;;;;;;;22.42;35.43;99027.50;435373;1256;97874;-42
2023/05/30 15:33:20;;;;;;;;;;;;;;;22.11;35.04;99028.27;435375;1255;110206;-42
2023/05/30 15:43:26;;;;;;;;;;;;;;;21.92;35.30;99021.17;435320;1255;107746;-42
2023/05/30 15:53:31;;;;;;;;;;;;;;;21.65;34.98;99025.60;434848;1255;485190;-43
2023/05/30 16:03:37;;;;;;;;;;;;;;;21.54;35.30;99019.84;435283;1254;110691;-44
2023/05/30 16:13:43;;;;;;;;;;;;;;;21.28;34.91;99026.75;435225;1251;108880;-44
2023/05/30 16:23:49;;;;;;;;;;;;;;;21.01;34.88;99028.13;435355;1254;97504;-42
2023/05/30 16:33:55;;;;;;;;;;;;;;;20.83;35.12;99039.69;435321;1255;110409;-42
2023/05/30 16:44:01;;;;;;;;;;;;;;;20.60;35.35;99048.79;435245;1255;108343;-43
2023/05/30 16:54:07;;;;;;;;;;;;;;;20.35;35.89;99057.13;434962;1254;97880;-43
2023/05/30 17:04:13;;;;;;;;;;;;;;;20.25;36.39;99064.67;435324;1256;110026;-43
2023/05/30 17:14:18;;;;;;;;;;;;;;;20.00;36.48;99082.02;435194;1265;110500;-43
2023/05/30 17:24:24;;;;;;;;;;;;;;;19.77;36.91;99095.75;435294;1255;97902;-43
2023/05/30 17:34:30;;;;;;;;;;;;;;;19.59;37.07;99106.64;435189;1255;110332;-43
2023/05/30 17:44:35;;;;;;;;;;;;;;;19.37;37.20;99113.59;435323;1262;108377;-43
2023/05/30 17:54:43;;;;;;;;;;;;;;;19.02;37.43;99117.73;435285;1254;97510;-43
2023/05/30 18:04:48;;;;;;;;;;;;;;;18.78;37.97;99117.80;435384;1257;111729;-42
2023/05/30 18:14:54;;;;;;;;;;;;;;;18.49;37.98;99122.64;435419;1264;108625;-44
2023/05/30 18:25:00;;;;;;;;;;;;;;;18.12;38.55;99133.55;435367;1256;96725;-42
2023/05/30 18:35:07;;;;;;;;;;;;;;;17.79;38.79;99141.77;435239;1254;111632;-41
2023/05/30 18:45:13;;;;;;;;;;;;;;;17.43;39.43;99150.05;435274;1264;107659;-41
2023/05/30 18:55:19;;;;;;;;;;;;;;;16.99;40.27;99157.14;435401;1254;97928;-42
2023/05/30 19:15:30;;;;;;;;;;;;;;;16.10;42.01;99184.48;435342;1251;107393;-43
2023/05/30 19:25:36;;;;;;;;;;;;;;;15.68;42.64;99197.26;435251;1255;97950;-43
2023/05/30 19:35:41;;;;;;;;;;;;;;;15.31;43.43;99203.87;435270;1255;110503;-41
2023/05/30 19:45:47;;;;;;;;;;;;;;;15.03;44.02;99203.46;435160;1255;96655;-43
2023/05/30 20:05:58;;;;;;;;;;;;;;;14.30;45.47;99214.89;435221;1255;111117;-42
2023/05/30 20:16:04;;;;;;;;;;;;;;;13.92;46.34;99218.48;435272;1254;108396;-44
2023/05/30 20:26:10;;;;;;;;;;;;;;;13.57;47.06;99225.81;435334;1254;97866;-43
2023/05/30 20:36:16;;;;;;;;;;;;;;;13.17;47.87;99233.52;435328;1254;110817;-42
2023/05/30 20:46:22;;;;;;;;;;;;;;;12.82;48.78;99238.92;435374;1264;106720;-43
2023/05/30 20:56:28;;;;;;;;;;;;;;;12.56;49.69;99242.11;435187;1254;96658;-43
2023/05/30 21:06:34;;;;;;;;;;;;;;;12.30;50.38;99242.20;435326;1254;110115;-42
2023/05/30 21:16:40;;;;;;;;;;;;;;;12.04;50.86;99247.23;435289;1254;107779;-41
2023/05/30 21:26:46;;;;;;;;;;;;;;;11.80;51.84;99254.66;435165;1254;97916;-43
2023/05/30 21:36:52;;;;;;;;;;;;;;;11.61;52.40;99255.36;435291;1251;110050;-43
2023/05/30 21:46:57;;;;;;;;;;;;;;;11.39;52.89;99259.70;435196;1255;108193;-43
2023/05/30 21:57:03;;;;;;;;;;;;;;;11.25;53.65;99259.60;435216;1251;97897;-42
2023/05/30 22:07:09;;;;;;;;;;;;;;;11.08;54.07;99271.23;435220;1255;111683;-43
2023/05/30 22:17:15;;;;;;;;;;;;;;;10.91;54.56;99276.59;435144;1251;108163;-45
2023/05/30 22:27:21;;;;;;;;;;;;;;;10.70;55.07;99280.83;435333;1254;97935;-43
2023/05/30 22:37:27;;;;;;;;;;;;;;;10.57;55.75;99283.98;435249;1254;110371;-41
2023/05/30 22:47:33;;;;;;;;;;;;;;;10.37;56.24;99279.56;435223;1265;107723;-41
2023/05/30 22:57:39;;;;;;;;;;;;;;;10.26;56.57;99283.65;435428;1254;97989;-43
2023/05/30 23:07:44;;;;;;;;;;;;;;;10.08;56.75;99274.64;435180;1254;96646;-43
2023/05/30 23:17:50;;;;;;;;;;;;;;;10.00;57.24;99273.06;435259;1254;109828;-43
2023/05/30 23:27:58;;;;;;;;;;;;;;;9.96;57.37;99277.30;435199;1255;108078;-42
2023/05/30 23:38:04;;;;;;;;;;;;;;;10.06;57.93;99282.82;435308;1252;97880;-43
2023/05/30 23:48:10;;;;;;;;;;;;;;;10.20;57.93;99275.50;435269;1254;108125;-43
2023/05/30 23:58:16;;;;;;;;;;;;;;;9.97;57.97;99280.49;435211;1254;97967;-42
